createdAt,value
2022-10-15T00:01:07.937Z,100228.00
2022-10-15T00:06:13.657Z,100217.22
2022-10-15T00:11:20.195Z,100207.91
2022-10-15T00:16:25.540Z,100212.91
2022-10-15T00:21:28.645Z,100217.34
2022-10-15T00:26:33.112Z,100211.69
2022-10-15T00:31:35.968Z,100218.72
2022-10-15T00:36:39.013Z,100212.56
2022-10-15T00:41:45.094Z,100212.28
2022-10-15T00:46:50.380Z,100218.25
2022-10-15T00:51:56.387Z,100218.31
2022-10-15T00:57:01.312Z,100213.34
2022-10-15T01:02:04.608Z,100217.56
2022-10-15T01:07:08.036Z,100217.28
2022-10-15T01:12:25.250Z,100220.38
2022-10-15T01:17:36.209Z,100212.09
2022-10-15T01:22:54.810Z,100206.06
2022-10-15T01:28:10.497Z,100208.81
2022-10-15T01:33:30.854Z,100216.53
2022-10-15T01:38:46.773Z,100206.34
2022-10-15T01:43:57.790Z,100201.00
2022-10-15T01:49:09.770Z,100203.59
2022-10-15T01:54:17.775Z,100206.91
2022-10-15T01:59:25.652Z,100214.03
2022-10-15T02:04:32.248Z,100214.63
2022-10-15T02:09:46.991Z,100212.25
2022-10-15T02:14:58.019Z,100209.81
2022-10-15T02:20:08.994Z,100201.19
2022-10-15T02:25:17.570Z,100199.25
2022-10-15T02:30:22.311Z,100191.53
2022-10-15T02:35:28.373Z,100195.31
2022-10-15T02:40:35.354Z,100185.41
2022-10-15T02:45:38.425Z,100197.44
2022-10-15T02:50:43.615Z,100195.22
2022-10-15T02:55:49.883Z,100195.66
2022-10-15T03:00:53.972Z,100182.47
2022-10-15T03:05:58.258Z,100194.25
2022-10-15T03:11:01.979Z,100197.72
2022-10-15T03:16:06.743Z,100197.97
2022-10-15T03:21:11.847Z,100204.81
2022-10-15T03:26:15.631Z,100199.78
2022-10-15T03:31:18.764Z,100197.00
2022-10-15T03:36:26.096Z,100195.75
2022-10-15T03:41:29.270Z,100203.06
2022-10-15T03:46:32.851Z,100203.19
2022-10-15T03:51:37.792Z,100201.56
2022-10-15T03:56:46.654Z,100200.38
2022-10-15T04:01:59.803Z,100196.06
2022-10-15T04:07:04.598Z,100194.56
2022-10-15T04:12:09.036Z,100200.22
2022-10-15T04:17:12.883Z,100206.88
2022-10-15T04:22:17.314Z,100201.19
2022-10-15T04:27:27.792Z,100210.53
2022-10-15T04:32:39.208Z,100201.53
2022-10-15T04:37:43.539Z,100211.09
2022-10-15T04:42:46.830Z,100215.34
2022-10-15T04:47:50.133Z,100216.44
2022-10-15T04:52:55.627Z,100224.25
2022-10-15T04:58:00.410Z,100225.88
2022-10-15T05:03:07.451Z,100226.84
2022-10-15T05:08:20.753Z,100231.09
2022-10-15T05:13:38.756Z,100231.75
2022-10-15T05:18:44.373Z,100234.63
2022-10-15T05:23:50.128Z,100241.66
2022-10-15T05:29:16.043Z,100250.78
2022-10-15T05:34:19.268Z,100248.81
2022-10-15T05:39:37.337Z,100243.69
2022-10-15T05:44:40.245Z,100254.81
2022-10-15T05:49:43.036Z,100253.47
2022-10-15T05:54:55.488Z,100253.03
2022-10-15T05:59:58.321Z,100263.09
2022-10-15T06:05:01.138Z,100272.97
2022-10-15T06:10:06.167Z,100266.78
2022-10-15T06:15:12.625Z,100264.38
2022-10-15T06:20:15.531Z,100271.78
2022-10-15T06:25:19.675Z,100271.81
2022-10-15T06:30:22.635Z,100272.63
2022-10-15T06:35:26.849Z,100284.16
2022-10-15T06:40:31.839Z,100283.53
2022-10-15T06:45:36.486Z,100282.13
2022-10-15T06:50:42.223Z,100285.63
2022-10-15T06:55:46.442Z,100287.50
2022-10-15T07:00:49.500Z,100291.06
2022-10-15T07:05:52.424Z,100297.97
2022-10-15T07:10:59.618Z,100288.78
2022-10-15T07:16:05.913Z,100298.81
2022-10-15T07:26:19.828Z,100294.47
2022-10-15T07:31:22.861Z,100298.09
2022-10-15T07:36:28.520Z,100302.38
2022-10-15T07:41:34.962Z,100307.34
2022-10-15T07:46:37.855Z,100312.88
2022-10-15T07:51:40.717Z,100300.41
2022-10-15T07:56:44.919Z,100292.91
2022-10-15T08:01:50.035Z,100295.34
2022-10-15T08:06:53.577Z,100299.91
2022-10-15T08:11:57.706Z,100299.50
2022-10-15T08:17:00.980Z,100296.28
2022-10-15T08:22:03.888Z,100303.03
2022-10-15T08:27:08.078Z,100298.63
2022-10-15T08:32:10.869Z,100313.94
2022-10-15T08:42:23.229Z,100311.13
2022-10-15T08:47:32.050Z,100304.25
2022-10-15T08:52:43.252Z,100306.66
2022-10-15T08:57:54.482Z,100299.19
2022-10-15T09:03:03.649Z,100304.50
2022-10-15T09:08:19.005Z,100312.09
2022-10-15T09:13:27.316Z,100314.44
2022-10-15T09:18:33.135Z,100314.31
2022-10-15T09:23:37.002Z,100320.03
2022-10-15T09:28:47.425Z,100317.66
2022-10-15T09:33:56.559Z,100324.41
2022-10-15T09:39:10.289Z,100307.59
2022-10-15T09:44:19.781Z,100317.00
2022-10-15T09:49:30.178Z,100307.31
2022-10-15T09:54:44.813Z,100307.47
2022-10-15T09:59:56.950Z,100305.59
2022-10-15T10:05:20.363Z,100305.19
2022-10-15T10:10:27.158Z,100293.81
2022-10-15T10:15:35.313Z,100290.63
2022-10-15T10:20:54.554Z,100291.47
2022-10-15T10:25:58.175Z,100294.53
2022-10-15T10:31:06.525Z,100293.28
2022-10-15T10:36:21.041Z,100293.19
2022-10-15T10:41:23.789Z,100283.31
2022-10-15T10:46:28.071Z,100287.41
2022-10-15T10:51:30.934Z,100298.44
2022-10-15T10:56:37.598Z,100293.75
2022-10-15T11:01:41.754Z,100283.06
2022-10-15T11:06:59.569Z,100279.00
2022-10-15T11:12:15.177Z,100288.63
2022-10-15T11:17:28.960Z,100272.59
2022-10-15T11:22:47.643Z,100277.34
2022-10-15T11:28:07.673Z,100263.97
2022-10-15T11:33:31.549Z,100260.53
2022-10-15T11:38:43.411Z,100265.56
2022-10-15T11:43:59.143Z,100271.97
2022-10-15T11:49:19.634Z,100267.50
2022-10-15T11:54:31.100Z,100272.84
2022-10-15T11:59:40.866Z,100263.41
2022-10-15T12:04:48.901Z,100263.28
2022-10-15T12:09:54.384Z,100244.97
2022-10-15T12:15:14.234Z,100244.78
2022-10-15T12:20:20.822Z,100220.16
2022-10-15T12:25:45.272Z,100233.41
2022-10-15T12:30:59.649Z,100215.44
2022-10-15T12:36:09.401Z,100205.25
2022-10-15T12:41:15.712Z,100200.09
2022-10-15T12:46:18.491Z,100195.00
2022-10-15T12:51:40.730Z,100204.06
2022-10-15T12:56:43.542Z,100202.31
2022-10-15T13:01:55.424Z,100219.28
2022-10-15T13:07:05.011Z,100219.06
2022-10-15T13:12:07.826Z,100212.09
2022-10-15T13:17:17.194Z,100213.47
2022-10-15T13:22:26.091Z,100211.00
2022-10-15T13:27:32.181Z,100197.84
2022-10-15T13:32:41.454Z,100196.72
2022-10-15T13:37:46.867Z,100193.84
2022-10-15T13:43:00.215Z,100191.72
2022-10-15T13:48:03.060Z,100173.91
2022-10-15T13:53:17.926Z,100163.75
2022-10-15T13:58:26.470Z,100144.97
2022-10-15T14:03:31.903Z,100164.91
2022-10-15T14:08:37.630Z,100158.91
2022-10-15T14:13:45.173Z,100153.28
2022-10-15T14:18:50.450Z,100143.94
2022-10-15T14:24:04.778Z,100143.16
2022-10-15T14:29:15.066Z,100146.75
2022-10-15T14:34:30.851Z,100134.56
2022-10-15T14:39:37.016Z,100144.19
2022-10-15T14:44:44.935Z,100133.94
2022-10-15T14:49:48.232Z,100136.09
2022-10-15T14:55:03.121Z,100136.09
2022-10-15T15:00:15.250Z,100143.69
2022-10-15T15:05:22.062Z,100139.78
2022-10-15T15:10:28.057Z,100128.94
2022-10-15T15:15:30.786Z,100131.44
2022-10-15T15:20:33.579Z,100128.50
2022-10-15T15:25:38.043Z,100134.38
2022-10-15T15:30:42.652Z,100138.75
2022-10-15T15:35:51.095Z,100150.44
2022-10-15T15:40:55.434Z,100148.94
2022-10-15T15:45:58.365Z,100147.81
2022-10-15T15:51:04.772Z,100148.69
2022-10-15T15:56:09.103Z,100148.56
2022-10-15T16:01:12.012Z,100143.16
2022-10-15T16:06:14.900Z,100152.22
2022-10-15T16:11:19.510Z,100143.84
2022-10-15T16:16:22.266Z,100151.72
2022-10-15T16:21:26.040Z,100136.22
2022-10-15T16:26:32.944Z,100145.19
2022-10-15T16:31:37.073Z,100133.00
2022-10-15T16:36:40.398Z,100142.56
2022-10-15T16:41:44.551Z,100142.22
2022-10-15T16:46:47.398Z,100149.25
2022-10-15T16:51:50.208Z,100143.84
2022-10-15T16:56:54.492Z,100139.53
2022-10-15T17:01:57.581Z,100145.63
2022-10-15T17:07:00.474Z,100148.44
2022-10-15T17:12:05.193Z,100146.19
2022-10-15T17:17:10.635Z,100156.53
2022-10-15T17:22:13.613Z,100162.38
2022-10-15T17:27:17.881Z,100149.47
2022-10-15T17:32:21.010Z,100160.59
2022-10-15T17:37:24.276Z,100161.19
2022-10-15T17:42:28.776Z,100170.03
2022-10-15T17:47:31.751Z,100172.22
2022-10-15T17:52:38.470Z,100177.31
2022-10-15T17:57:45.940Z,100174.81
2022-10-15T18:16:55.631Z,100178.75
2022-10-15T18:22:08.798Z,100177.91
2022-10-15T18:27:12.605Z,100188.22
2022-10-15T18:32:16.936Z,100204.31
2022-10-15T18:37:21.753Z,100208.94
2022-10-15T18:42:25.720Z,100219.47
2022-10-15T18:47:29.014Z,100223.75
2022-10-15T18:52:39.840Z,100225.19
2022-10-15T18:57:43.747Z,100228.69
2022-10-15T19:02:46.631Z,100234.84
2022-10-15T19:07:55.440Z,100244.53
2022-10-15T19:13:00.577Z,100256.00
2022-10-15T19:18:11.319Z,100257.47
2022-10-15T19:23:17.921Z,100256.00
2022-10-15T19:28:20.912Z,100256.69
2022-10-15T19:33:25.767Z,100264.59
2022-10-15T19:38:33.140Z,100272.34
2022-10-15T19:43:37.362Z,100270.59
2022-10-15T19:49:02.047Z,100268.53
2022-10-15T19:54:06.457Z,100281.69
2022-10-15T19:59:10.944Z,100287.00
2022-10-15T20:04:13.793Z,100293.28
2022-10-15T20:10:16.794Z,100307.16
2022-10-15T20:15:49.129Z,100314.88
2022-10-15T20:26:31.441Z,100320.75
2022-10-15T20:31:35.868Z,100333.44
2022-10-15T20:36:41.454Z,100348.81
2022-10-15T20:42:11.170Z,100369.19
2022-10-15T20:47:31.896Z,100362.25
2022-10-15T20:52:37.465Z,100368.41
2022-10-15T20:57:50.200Z,100383.59
2022-10-15T21:02:56.102Z,100379.41
2022-10-15T21:08:08.701Z,100390.66
2022-10-15T21:13:16.536Z,100408.84
2022-10-15T21:23:47.006Z,100429.28
2022-10-15T21:28:55.125Z,100428.91
2022-10-15T21:33:57.862Z,100444.00
2022-10-15T21:39:02.682Z,100457.69
2022-10-15T21:44:08.409Z,100468.56
2022-10-15T21:49:11.567Z,100467.44
2022-10-15T21:54:14.439Z,100468.34
2022-10-15T21:59:18.612Z,100481.47
2022-10-15T22:04:21.525Z,100474.84
2022-10-15T22:09:24.374Z,100472.94
2022-10-15T22:14:28.624Z,100474.56
2022-10-15T22:19:31.498Z,100481.56
2022-10-15T22:24:35.291Z,100480.63
2022-10-15T22:29:39.820Z,100489.78
2022-10-15T22:34:42.716Z,100496.59
2022-10-15T22:39:45.569Z,100489.47
2022-10-15T22:44:52.136Z,100496.88
2022-10-15T22:49:55.137Z,100491.38
2022-10-15T22:54:58.045Z,100488.41
2022-10-15T23:00:02.212Z,100493.50
2022-10-15T23:05:05.236Z,100495.72
2022-10-15T23:10:08.553Z,100502.53
2022-10-15T23:15:13.066Z,100504.06
2022-10-15T23:20:15.926Z,100501.72
2022-10-15T23:25:18.766Z,100507.91
2022-10-15T23:30:24.960Z,100509.75
2022-10-15T23:35:28.092Z,100511.78
2022-10-15T23:40:31.299Z,100505.69
2022-10-15T23:45:38.048Z,100515.28
2022-10-15T23:50:43.872Z,100508.94
2022-10-15T23:55:47.181Z,100510.56
